Flight Track Log - Related Links

Times and Time Zones

All times are in EDT time to prevent confusion due to time zone crossing. See the N400WK flight status page for this flight to view local times or setup timezone preferences in your user account.

Time Position Orientation Groundspeed Altitude Reporting Facility
EDT Latitude Longitude Course Direction KTS MPH feet Rate Location/Type
Sat 10:24:16 AM 35.8583 -78.8058 197° South 161 185 1,000  Level Washington Center
Sat 10:24:58 AM 35.8206 -78.8197 197° South 203 234 2,800 2,388 Climbing Washington Center
Sat 10:25:59 AM 35.7531 -78.8475 198° South 272 313 5,100 2,455 Climbing Washington Center
Sat 10:26:48 AM 35.7064 -78.8686 200° South 269 310 7,300 2,422 Climbing Washington Center
Sat 10:27:48 AM 35.6311 -78.8811 188° South 269 310 9,500 2,231 Climbing Washington Center
Sat 10:28:49 AM 35.5514 -78.8906 186° South 282 325 11,800 2,115 Climbing Washington Center
Sat 10:29:50 AM 35.4658 -78.8972 184° South 296 341 13,800 2,017 Climbing Washington Center
Sat 10:30:48 AM 35.3672 -78.9133 188° South 321 369 15,800 1,109 Climbing Washington Center
Sat 10:31:49 AM 35.2833 -78.9253 187° South 340 391 16,000 98 Climbing Washington Center
Sat 10:32:50 AM 35.1669 -78.9078 173° South 373 429 16,000  Level Washington Center
Sat 10:33:48 AM 35.0672 -78.8908 172° South 390 449 16,000 -51 Level Washington Center
Sat 10:34:48 AM 34.9489 -78.8733 173° South 390 449 15,900 -50 Descending Washington Center
Sat 10:35:49 AM 34.8533 -78.8594 173° South 390 449 15,900 -545 Level Washington Center
Sat 10:36:49 AM 34.7347 -78.8447 174° South 384 442 14,800 -1,314 Descending Washington Center
Sat 10:38:06 AM 34.6033 -78.8292 174° South 393 452 12,900 -1,620 Descending Jacksonville Center
Sat 10:39:06 AM 34.4903 -78.8192 176° South 387 445 11,100 -950 Descending Jacksonville Center
Sat 10:40:06 AM 34.3961 -78.8061 173° South 368 423 11,000 -300 Descending Jacksonville Center
Sat 10:41:06 AM 34.3142 -78.7922 172° South 337 388 10,500 -1,400 Descending Jacksonville Center
Sat 10:42:06 AM 34.2328 -78.7836 175° South 309 356 8,200 -2,150 Descending Jacksonville Center
Sat 10:43:06 AM 34.1550 -78.7722 173° South 296 341 6,200 -1,600 Descending Jacksonville Center
Sat 10:44:06 AM 34.0839 -78.7631 174° South 280 322 5,000 -1,050 Descending Jacksonville Center
Sat 10:45:06 AM 34.0144 -78.7464 169° South 268 308 4,100 -1,600 Descending Jacksonville Center
Sat 10:46:06 AM 33.9450 -78.7269 167° South 262 302 1,800 -1,500 Descending Jacksonville Center
Sat 10:47:06 AM 33.8836 -78.6975 158° South 252 290 1,100 -450 Descending Jacksonville Center
Sat 10:48:06 AM 33.8244 -78.6803 166° South 243 280 900 -200 Descending Jacksonville Center

Login

Don't have an account? Register now (free) for customized features, flight alerts, and more!